Time;durP1;ratioP1;P1;durP2;ratioP2;P2;SDS_P1;SDS_P2;PMS_P1;PMS_P2;Temp;Humidity;BMP_temperature;BMP_pressure;BME280_temperature;BME280_humidity;BME280_pressure;Samples;Min_cycle;Max_cycle;Signal;HPM_P1;HPM_P2
2022/04/23 00:01:39;;;;;;;30.50;17.00;;;11.90;76.10;;;;;;5019224;28;20838;-77
2022/04/23 00:04:05;;;;;;;31.80;17.03;;;11.90;76.20;;;;;;5023092;28;20463;-77
2022/04/23 00:06:31;;;;;;;24.63;15.60;;;11.90;76.20;;;;;;5017746;28;20456;-76
2022/04/23 00:08:57;;;;;;;32.00;17.17;;;11.90;76.70;;;;;;5024504;28;20464;-77
2022/04/23 00:11:23;;;;;;;26.57;15.60;;;11.90;76.80;;;;;;5015651;28;20222;-77
2022/04/23 00:13:49;;;;;;;26.20;16.40;;;11.90;77.00;;;;;;5017604;28;20218;-76
2022/04/23 00:16:15;;;;;;;27.47;16.23;;;11.90;77.00;;;;;;5030991;28;20511;-76
2022/04/23 00:18:42;;;;;;;26.30;14.80;;;11.90;77.30;;;;;;5024530;28;20820;-77
2022/04/23 00:21:08;;;;;;;27.37;15.90;;;11.80;77.40;;;;;;5037563;28;20474;-76
2022/04/23 00:23:34;;;;;;;23.40;14.00;;;11.90;77.60;;;;;;5029087;28;20428;-77
2022/04/23 00:26:00;;;;;;;26.80;15.40;;;11.80;77.70;;;;;;5032201;28;20536;-77
2022/04/23 00:28:26;;;;;;;27.63;15.73;;;11.80;77.80;;;;;;5041780;28;20379;-75
2022/04/23 00:30:52;;;;;;;27.10;14.60;;;11.80;78.00;;;;;;5037611;28;20420;-76
2022/04/23 00:33:21;;;;;;;28.53;15.50;;;11.70;78.10;;;;;;5040352;28;20449;-77
2022/04/23 00:35:49;;;;;;;32.27;16.00;;;11.80;78.30;;;;;;5029481;28;20181;-76
2022/04/23 00:38:16;;;;;;;24.00;14.77;;;11.70;78.10;;;;;;5018136;28;20955;-77
2022/04/23 00:40:43;;;;;;;27.67;16.37;;;11.70;78.40;;;;;;5021894;28;20456;-78
2022/04/23 00:43:27;;;;;;;31.80;16.90;;;11.70;78.30;;;;;;5018244;28;20479;-78
2022/04/23 00:45:53;;;;;;;25.27;15.43;;;11.70;78.30;;;;;;5018574;28;20762;-76
2022/04/23 00:48:21;;;;;;;27.87;15.10;;;11.70;78.60;;;;;;5020387;28;20468;-78
2022/04/23 00:50:52;;;;;;;24.97;15.27;;;11.70;78.90;;;;;;5018831;28;20483;-77
2022/04/23 00:53:20;;;;;;;24.10;14.90;;;11.60;79.00;;;;;;5018427;28;20437;-77
2022/04/23 00:55:47;;;;;;;23.50;13.40;;;11.60;79.30;;;;;;5021472;28;20488;-77
2022/04/23 00:58:16;;;;;;;25.97;13.97;;;11.60;79.70;;;;;;5020295;28;20493;-77
2022/04/23 01:00:43;;;;;;;24.97;13.07;;;11.60;79.70;;;;;;5017024;28;20435;-77
2022/04/23 01:03:12;;;;;;;23.67;13.13;;;11.60;79.60;;;;;;5020098;28;20440;-76
2022/04/23 01:05:47;;;;;;;24.90;13.90;;;11.60;79.60;;;;;;5017747;28;20582;-75
2022/04/23 01:08:18;;;;;;;22.63;12.67;;;11.70;79.90;;;;;;5024630;28;20590;-77
2022/04/23 01:10:45;;;;;;;22.37;13.20;;;11.60;80.00;;;;;;5032003;28;20477;-76
2022/04/23 01:13:14;;;;;;;23.90;13.00;;;11.60;80.20;;;;;;5025556;28;20460;-77
2022/04/23 01:16:07;;;;;;;24.17;13.83;;;11.60;80.20;;;;;;5032360;28;20497;-76
2022/04/23 01:18:36;;;;;;;26.93;13.00;;;11.60;80.50;;;;;;5035729;28;20973;-75
2022/04/23 01:21:04;;;;;;;22.90;13.00;;;11.60;80.60;;;;;;5026214;28;20433;-77
2022/04/23 01:23:30;;;;;;;19.20;11.53;;;11.60;80.80;;;;;;5016744;28;20996;-77
2022/04/23 01:25:59;;;;;;;19.97;11.37;;;11.60;80.80;;;;;;5013739;28;20447;-77
2022/04/23 01:28:27;;;;;;;22.90;12.20;;;11.60;80.90;;;;;;5020779;28;20482;-76
2022/04/23 01:30:54;;;;;;;21.83;12.93;;;11.50;81.10;;;;;;5010965;28;20417;-76
2022/04/23 01:33:20;;;;;;;20.07;12.90;;;11.50;81.10;;;;;;5013839;28;20421;-77
2022/04/23 01:35:47;;;;;;;24.27;13.50;;;11.50;81.50;;;;;;5017990;28;20439;-77
2022/04/23 01:38:13;;;;;;;22.77;11.83;;;11.50;81.70;;;;;;5018698;28;20453;-76
2022/04/23 01:40:39;;;;;;;22.23;12.03;;;11.40;81.70;;;;;;5019665;28;20436;-76
2022/04/23 01:43:06;;;;;;;21.60;12.93;;;11.40;81.80;;;;;;5022394;28;20421;-76
2022/04/23 01:45:31;;;;;;;24.13;14.00;;;11.40;81.90;;;;;;5011835;28;20524;-76
2022/04/23 01:47:57;;;;;;;20.90;12.27;;;11.30;82.20;;;;;;5012542;28;20551;-78
2022/04/23 01:50:23;;;;;;;21.60;12.33;;;11.30;82.50;;;;;;5021544;28;20214;-76
2022/04/23 01:52:49;;;;;;;22.00;12.50;;;11.20;82.50;;;;;;5018543;28;20740;-77
2022/04/23 01:55:15;;;;;;;23.93;13.40;;;11.20;83.00;;;;;;5018936;28;20500;-78
2022/04/23 01:57:41;;;;;;;22.03;12.57;;;11.20;83.00;;;;;;5016765;28;20301;-77
2022/04/23 02:00:10;;;;;;;25.10;13.53;;;11.20;83.10;;;;;;5011738;28;20272;-76
2022/04/23 02:02:37;;;;;;;24.00;13.00;;;11.10;83.30;;;;;;5019167;28;20216;-76
2022/04/23 02:05:06;;;;;;;24.80;13.90;;;11.10;83.40;;;;;;5015873;28;20507;-76
2022/04/23 02:07:37;;;;;;;21.83;12.70;;;11.10;83.60;;;;;;5014720;28;20480;-77
2022/04/23 02:10:07;;;;;;;27.83;13.93;;;11.10;83.70;;;;;;5017782;28;20424;-77
2022/04/23 02:12:33;;;;;;;22.20;13.37;;;11.00;83.80;;;;;;5015397;28;20899;-76
2022/04/23 02:15:00;;;;;;;26.13;14.20;;;11.00;84.00;;;;;;5020376;28;20967;-77
2022/04/23 02:17:42;;;;;;;25.33;13.97;;;11.00;84.30;;;;;;5016755;28;20448;-77
2022/04/23 02:20:11;;;;;;;23.40;13.93;;;10.90;84.40;;;;;;5011858;28;20433;-76
2022/04/23 02:22:38;;;;;;;31.43;15.80;;;10.90;84.70;;;;;;5010653;28;20472;-76
2022/04/23 02:25:05;;;;;;;24.57;13.97;;;10.80;85.00;;;;;;5016702;28;20425;-76
2022/04/23 02:27:47;;;;;;;22.57;13.17;;;10.80;85.20;;;;;;5014924;28;20468;-76
2022/04/23 02:30:19;;;;;;;31.33;14.90;;;10.70;85.50;;;;;;5008496;28;20474;-76
2022/04/23 02:32:45;;;;;;;25.70;15.70;;;10.70;85.60;;;;;;5017614;28;20428;-76
2022/04/23 02:35:12;;;;;;;24.40;15.20;;;10.70;85.70;;;;;;5013339;28;20425;-76
2022/04/23 02:37:40;;;;;;;24.93;14.60;;;10.60;86.00;;;;;;5019196;28;20484;-76
2022/04/23 02:40:07;;;;;;;26.83;14.90;;;10.60;86.20;;;;;;5022865;28;20788;-76
2022/04/23 02:42:36;;;;;;;28.60;15.27;;;10.50;86.50;;;;;;5015632;28;20525;-76
2022/04/23 02:45:03;;;;;;;28.43;15.40;;;10.50;86.60;;;;;;5014862;28;20806;-76
2022/04/23 02:47:30;;;;;;;26.10;14.57;;;10.50;86.90;;;;;;5015622;28;20483;-76
2022/04/23 02:49:56;;;;;;;28.33;16.23;;;10.50;87.00;;;;;;5011551;28;20429;-77
2022/04/23 02:52:22;;;;;;;25.13;15.43;;;10.40;87.10;;;;;;5017023;28;20430;-76
2022/04/23 02:54:47;;;;;;;28.37;16.20;;;10.40;87.10;;;;;;5011357;28;20508;-76
2022/04/23 02:57:13;;;;;;;26.53;15.37;;;10.40;87.30;;;;;;5010771;28;20221;-76
2022/04/23 02:59:39;;;;;;;29.13;16.70;;;10.40;87.40;;;;;;5011057;28;20236;-76
2022/04/23 03:02:06;;;;;;;24.57;14.43;;;10.40;87.60;;;;;;5015422;28;20196;-77
2022/04/23 03:04:32;;;;;;;32.10;16.73;;;10.40;87.70;;;;;;5015578;28;20846;-77
2022/04/23 03:06:57;;;;;;;30.10;16.70;;;10.30;87.70;;;;;;5015387;28;20455;-77
2022/04/23 03:09:23;;;;;;;29.47;15.87;;;10.20;88.00;;;;;;5016500;28;20425;-76
2022/04/23 03:11:49;;;;;;;30.83;16.07;;;10.20;88.00;;;;;;5019127;28;20198;-77
2022/04/23 03:14:15;;;;;;;28.80;17.23;;;10.10;88.30;;;;;;5016491;28;20232;-78
2022/04/23 03:16:41;;;;;;;31.37;15.63;;;10.10;88.40;;;;;;5017221;28;20182;-76
2022/04/23 03:19:07;;;;;;;26.70;15.53;;;10.10;88.40;;;;;;5017096;28;20448;-76
2022/04/23 03:21:33;;;;;;;29.57;17.20;;;10.00;88.70;;;;;;5015012;28;20435;-77
2022/04/23 03:23:59;;;;;;;31.90;15.97;;;10.00;88.90;;;;;;5016774;28;20395;-78
2022/04/23 03:26:24;;;;;;;28.70;15.83;;;10.00;89.00;;;;;;5010977;28;20417;-74
2022/04/23 03:28:50;;;;;;;26.73;15.90;;;10.00;88.90;;;;;;5021029;28;20220;-76
2022/04/23 03:31:16;;;;;;;30.03;17.83;;;9.90;89.20;;;;;;5024374;28;20170;-75
2022/04/23 03:33:42;;;;;;;31.27;16.57;;;9.90;89.30;;;;;;5029696;28;20424;-76
2022/04/23 03:36:08;;;;;;;29.10;16.77;;;9.90;89.30;;;;;;5033792;28;20223;-78
2022/04/23 03:38:33;;;;;;;29.60;16.80;;;9.80;89.50;;;;;;5034763;28;20210;-77
2022/04/23 03:40:59;;;;;;;31.50;17.10;;;9.70;89.60;;;;;;5024074;28;20930;-77
2022/04/23 03:43:25;;;;;;;28.77;15.10;;;9.70;89.90;;;;;;5018741;28;20205;-79
2022/04/23 03:45:52;;;;;;;27.70;16.80;;;9.70;90.00;;;;;;5021563;28;20189;-75
2022/04/23 03:48:18;;;;;;;31.10;16.30;;;9.70;90.00;;;;;;5018471;28;21010;-76
2022/04/23 03:50:44;;;;;;;33.93;17.40;;;9.70;90.20;;;;;;5020566;28;20423;-76
2022/04/23 03:53:11;;;;;;;32.80;16.87;;;9.60;90.30;;;;;;5025541;28;20425;-77
2022/04/23 03:55:37;;;;;;;28.03;15.90;;;9.60;90.40;;;;;;5012760;28;20421;-76
2022/04/23 03:58:03;;;;;;;30.50;17.70;;;9.50;90.40;;;;;;5019250;28;20440;-76
2022/04/23 04:00:30;;;;;;;29.50;16.03;;;9.50;90.50;;;;;;5010687;28;20440;-75
2022/04/23 04:02:56;;;;;;;28.70;15.80;;;9.50;90.60;;;;;;5020992;28;20447;-76
2022/04/23 04:05:23;;;;;;;34.37;16.33;;;9.50;90.70;;;;;;5014107;28;20432;-77
2022/04/23 04:07:49;;;;;;;34.83;18.37;;;9.50;90.80;;;;;;5021218;28;20213;-76
2022/04/23 04:10:20;;;;;;;31.80;15.77;;;9.50;90.70;;;;;;5011912;28;20795;-76
2022/04/23 04:12:47;;;;;;;25.80;15.20;;;9.40;90.70;;;;;;5013358;28;20445;-76
2022/04/23 04:15:17;;;;;;;31.60;15.53;;;9.40;90.80;;;;;;5018377;28;20452;-76
2022/04/23 04:17:49;;;;;;;32.20;17.57;;;9.30;90.90;;;;;;5013442;28;20571;-76
2022/04/23 04:20:15;;;;;;;31.60;16.23;;;9.30;90.90;;;;;;5009745;28;20478;-77
2022/04/23 04:22:41;;;;;;;31.20;16.27;;;9.30;91.00;;;;;;5018762;28;20425;-76
2022/04/23 04:25:09;;;;;;;25.40;15.20;;;9.40;91.00;;;;;;5019824;28;20431;-76
2022/04/23 04:27:35;;;;;;;21.37;12.63;;;9.40;91.00;;;;;;5018299;28;20483;-75
2022/04/23 04:30:06;;;;;;;20.00;12.23;;;9.50;90.80;;;;;;5017163;28;20497;-76
2022/04/23 04:32:32;;;;;;;22.73;13.10;;;9.50;90.40;;;;;;5020318;28;20864;-76
2022/04/23 04:34:58;;;;;;;22.07;12.73;;;9.60;90.20;;;;;;5014639;28;20516;-76
2022/04/23 04:37:24;;;;;;;24.33;13.40;;;9.60;90.10;;;;;;5026387;28;20237;-77
2022/04/23 04:39:50;;;;;;;23.50;13.00;;;9.70;90.00;;;;;;5024952;28;20435;-77
2022/04/23 04:42:16;;;;;;;21.90;12.70;;;9.70;90.00;;;;;;5025169;28;20417;-78
2022/04/23 04:44:42;;;;;;;23.20;13.43;;;9.80;89.70;;;;;;5021732;28;20452;-78
2022/04/23 04:47:09;;;;;;;23.67;13.20;;;9.90;89.20;;;;;;5020139;28;20205;-78
2022/04/23 04:49:35;;;;;;;24.83;12.83;;;9.90;88.60;;;;;;5027121;28;20428;-76
2022/04/23 04:52:01;;;;;;;19.87;11.30;;;10.00;88.40;;;;;;5022888;28;20792;-78
2022/04/23 04:54:27;;;;;;;20.30;11.90;;;10.00;88.30;;;;;;5022325;28;20429;-76
2022/04/23 04:56:56;;;;;;;22.30;12.40;;;10.10;87.60;;;;;;5023018;28;20433;-75
2022/04/23 04:59:22;;;;;;;24.80;14.17;;;10.10;87.40;;;;;;5027615;28;20439;-77
2022/04/23 05:01:49;;;;;;;22.73;12.93;;;10.10;87.10;;;;;;5023148;28;20440;-77
2022/04/23 05:04:15;;;;;;;20.33;11.10;;;10.10;87.30;;;;;;5020866;28;20417;-76
2022/04/23 05:06:40;;;;;;;23.30;13.00;;;9.90;87.60;;;;;;5019258;28;20451;-73
2022/04/23 05:09:06;;;;;;;19.70;11.30;;;9.90;88.00;;;;;;5017072;28;20217;-75
2022/04/23 05:11:32;;;;;;;25.03;13.77;;;9.90;88.40;;;;;;5018984;28;20193;-74
2022/04/23 05:13:58;;;;;;;22.57;12.50;;;10.00;88.00;;;;;;5012248;28;20232;-75
2022/04/23 05:16:23;;;;;;;27.00;13.47;;;10.00;87.70;;;;;;5011463;28;20548;-74
2022/04/23 05:18:49;;;;;;;22.47;12.53;;;10.00;87.70;;;;;;5016382;28;20256;-74
2022/04/23 05:21:15;;;;;;;17.13;11.20;;;10.00;87.60;;;;;;5011177;28;20193;-72
2022/04/23 05:23:41;;;;;;;34.50;17.30;;;10.10;87.70;;;;;;5016587;28;20225;-72
2022/04/23 05:26:09;;;;;;;29.83;15.27;;;10.10;87.40;;;;;;5014963;28;20186;-73
2022/04/23 05:28:35;;;;;;;29.43;16.27;;;10.10;87.30;;;;;;5011943;28;20244;-74
2022/04/23 05:31:02;;;;;;;28.60;15.00;;;10.10;87.30;;;;;;5012963;28;20919;-74
2022/04/23 05:33:27;;;;;;;25.70;13.70;;;10.10;87.30;;;;;;5014119;28;20424;-73
2022/04/23 05:35:53;;;;;;;20.17;12.40;;;10.10;87.30;;;;;;5015491;28;20912;-72
2022/04/23 05:38:20;;;;;;;25.80;12.83;;;10.20;87.40;;;;;;5011188;28;20650;-73
2022/04/23 05:40:49;;;;;;;18.60;11.87;;;10.30;87.30;;;;;;5011360;28;20280;-74
2022/04/23 05:43:16;;;;;;;20.30;11.83;;;10.30;86.80;;;;;;5015028;28;20429;-74
2022/04/23 05:45:46;;;;;;;20.23;11.13;;;10.50;86.30;;;;;;5018945;28;20435;-73
2022/04/23 05:48:11;;;;;;;23.27;12.30;;;10.50;86.00;;;;;;5015857;28;20465;-72
2022/04/23 05:50:37;;;;;;;21.20;11.87;;;10.50;85.60;;;;;;5016624;28;20424;-75
2022/04/23 05:53:03;;;;;;;27.00;12.97;;;10.60;85.60;;;;;;5015009;28;20425;-74
2022/04/23 05:55:29;;;;;;;27.17;14.80;;;10.50;85.60;;;;;;5014711;28;20505;-74
2022/04/23 05:57:55;;;;;;;23.00;12.33;;;10.40;85.90;;;;;;5009982;28;20549;-72
2022/04/23 06:00:21;;;;;;;26.30;14.50;;;10.40;86.00;;;;;;5009148;28;20197;-71
2022/04/23 06:02:47;;;;;;;25.50;12.63;;;10.50;85.90;;;;;;5016517;28;20194;-73
2022/04/23 06:05:13;;;;;;;22.40;12.20;;;10.50;85.70;;;;;;5015375;28;20442;-73
2022/04/23 06:07:39;;;;;;;21.47;12.47;;;10.60;85.30;;;;;;5020364;28;20973;-72
2022/04/23 06:10:06;;;;;;;26.50;12.77;;;10.60;85.00;;;;;;5018886;28;20894;-71
2022/04/23 06:12:32;;;;;;;24.30;13.70;;;10.70;85.00;;;;;;5017126;28;20775;-73
2022/04/23 06:14:58;;;;;;;23.80;13.03;;;10.80;84.40;;;;;;5019791;28;20499;-72
2022/04/23 06:17:26;;;;;;;19.57;12.80;;;10.90;84.60;;;;;;5018348;28;20532;-73
2022/04/23 06:19:52;;;;;;;22.00;12.60;;;11.00;84.10;;;;;;5022139;28;20444;-72
2022/04/23 06:22:22;;;;;;;21.07;12.03;;;11.20;83.10;;;;;;5028729;28;20485;-73
2022/04/23 06:24:48;;;;;;;17.70;11.40;;;11.20;82.50;;;;;;5023873;28;20944;-72
2022/04/23 06:27:14;;;;;;;21.17;10.70;;;11.40;82.20;;;;;;5006971;28;20837;-73
2022/04/23 06:29:40;;;;;;;17.60;9.87;;;11.40;81.70;;;;;;5009135;28;20425;-73
2022/04/23 06:32:07;;;;;;;20.90;11.00;;;11.50;81.40;;;;;;5014041;28;20198;-73
2022/04/23 06:34:34;;;;;;;18.50;11.13;;;11.50;80.50;;;;;;5005751;28;20430;-74
2022/04/23 06:36:59;;;;;;;20.53;10.27;;;11.40;80.00;;;;;;5015695;28;20425;-72
2022/04/23 06:39:25;;;;;;;19.60;10.70;;;11.40;80.00;;;;;;5024190;28;20448;-72
2022/04/23 06:41:51;;;;;;;21.33;12.77;;;11.40;79.90;;;;;;5020402;28;20232;-71
2022/04/23 06:44:17;;;;;;;34.20;17.47;;;11.20;80.60;;;;;;5029204;28;20219;-73
2022/04/23 06:46:42;;;;;;;20.50;10.77;;;11.30;80.60;;;;;;5023491;28;20911;-72
2022/04/23 06:49:08;;;;;;;17.57;9.90;;;11.30;80.20;;;;;;5023038;28;20248;-72
2022/04/23 06:51:37;;;;;;;13.20;9.10;;;11.30;79.90;;;;;;5012432;28;20200;-72
2022/04/23 06:54:03;;;;;;;19.37;10.70;;;11.30;79.70;;;;;;5012927;28;20194;-73
2022/04/23 06:56:30;;;;;;;16.60;10.27;;;11.40;79.70;;;;;;5005269;28;21026;-73
2022/04/23 06:58:56;;;;;;;15.37;9.40;;;11.40;79.30;;;;;;5014653;28;20963;-74
2022/04/23 07:01:21;;;;;;;14.67;9.23;;;11.40;79.50;;;;;;5012834;28;20455;-74
2022/04/23 07:03:47;;;;;;;17.70;9.47;;;11.40;79.30;;;;;;5017272;28;20440;-74
2022/04/23 07:06:15;;;;;;;17.97;9.80;;;11.60;79.20;;;;;;5011506;28;20206;-73
2022/04/23 07:08:43;;;;;;;16.07;10.13;;;11.70;78.30;;;;;;5019274;28;20221;-73
2022/04/23 07:11:09;;;;;;;15.40;9.47;;;11.90;77.70;;;;;;5014079;28;20425;-75
2022/04/23 07:13:35;;;;;;;17.33;9.93;;;11.80;77.10;;;;;;5013570;28;20424;-74
2022/04/23 07:16:03;;;;;;;17.37;9.87;;;11.90;77.10;;;;;;5015258;28;21270;-75
2022/04/23 07:18:30;;;;;;;15.57;9.20;;;12.00;77.10;;;;;;5016108;28;20497;-74
2022/04/23 07:20:55;;;;;;;15.10;8.87;;;12.00;76.70;;;;;;5009205;28;20433;-76
2022/04/23 07:26:08;;;;;;;15.30;9.43;;;12.10;76.50;;;;;;5013622;28;20319;-73
2022/04/23 07:28:34;;;;;;;17.40;9.97;;;12.10;76.10;;;;;;5006148;28;20477;-76
2022/04/23 07:31:00;;;;;;;16.83;10.30;;;12.00;76.50;;;;;;5017575;28;20420;-76
2022/04/23 07:38:55;;;;;;;14.97;8.63;;;12.10;75.80;;;;;;5017930;28;20444;-76
2022/04/23 07:41:21;;;;;;;14.63;8.70;;;12.20;75.40;;;;;;5021122;28;20424;-78
2022/04/23 07:43:46;;;;;;;17.80;10.27;;;12.30;75.40;;;;;;5012807;28;20197;-77
2022/04/23 07:46:12;;;;;;;16.93;9.23;;;12.30;74.80;;;;;;5013247;28;20930;-76
2022/04/23 07:48:38;;;;;;;19.50;9.63;;;12.40;74.80;;;;;;5011889;28;20210;-76
2022/04/23 07:51:04;;;;;;;16.83;9.30;;;12.40;74.30;;;;;;5014705;28;20193;-76
2022/04/23 07:53:30;;;;;;;11.90;7.93;;;12.40;74.50;;;;;;5012580;28;20464;-77
2022/04/23 07:55:57;;;;;;;14.03;8.97;;;12.60;74.50;;;;;;5009819;28;20186;-76
2022/04/23 07:58:23;;;;;;;14.07;8.70;;;12.60;73.60;;;;;;5014124;28;20444;-74
2022/04/23 08:00:48;;;;;;;15.00;9.37;;;12.70;73.00;;;;;;5011909;28;20483;-77
2022/04/23 08:03:15;;;;;;;15.50;8.73;;;12.80;72.70;;;;;;5010455;28;20213;-76
2022/04/23 08:05:42;;;;;;;17.93;9.80;;;13.00;72.70;;;;;;5011079;28;20527;-76
2022/04/23 08:08:08;;;;;;;15.53;8.80;;;13.10;71.60;;;;;;5021753;28;20484;-74
2022/04/23 08:10:34;;;;;;;16.83;9.43;;;13.20;71.30;;;;;;5028215;28;20420;-76
2022/04/23 08:13:00;;;;;;;14.53;8.80;;;13.30;71.10;;;;;;5018607;28;20455;-74
2022/04/23 08:15:26;;;;;;;15.27;8.97;;;13.40;71.30;;;;;;5022110;28;20446;-78
2022/04/23 08:17:55;;;;;;;13.00;8.43;;;13.50;70.70;;;;;;5015842;28;20831;-76
2022/04/23 08:20:21;;;;;;;15.33;8.00;;;13.60;70.70;;;;;;5020622;28;20436;-77
2022/04/23 08:22:47;;;;;;;13.80;8.20;;;13.70;69.70;;;;;;5019503;28;20425;-76
2022/04/23 08:25:13;;;;;;;14.30;8.40;;;13.70;69.70;;;;;;5016363;28;20197;-76
2022/04/23 08:27:48;;;;;;;14.30;8.70;;;13.70;69.70;;;;;;5018356;28;20210;-77
2022/04/23 08:32:57;;;;;;;16.13;8.80;;;13.60;69.90;;;;;;5021575;28;20404;-77
2022/04/23 08:35:23;;;;;;;16.00;9.80;;;13.60;69.90;;;;;;5018761;28;20417;-74
2022/04/23 08:37:50;;;;;;;17.00;8.77;;;13.50;70.20;;;;;;5023896;28;20216;-76
2022/04/23 08:40:16;;;;;;;13.60;8.47;;;13.40;70.50;;;;;;5013101;28;20182;-77
2022/04/23 08:42:42;;;;;;;16.90;9.60;;;13.40;70.80;;;;;;5014797;28;20424;-75
2022/04/23 08:45:10;;;;;;;15.60;8.83;;;13.50;70.70;;;;;;5014731;28;20189;-78
2022/04/23 08:47:37;;;;;;;16.10;9.10;;;13.50;70.20;;;;;;5012988;28;20268;-77
2022/04/23 08:50:06;;;;;;;16.90;9.87;;;13.50;70.10;;;;;;5022573;28;20814;-76
2022/04/23 08:52:32;;;;;;;17.37;9.40;;;13.50;70.40;;;;;;5017684;28;20455;-74
2022/04/23 08:55:06;;;;;;;18.37;9.47;;;13.60;70.70;;;;;;5015552;28;20797;-76
2022/04/23 08:57:32;;;;;;;14.00;8.60;;;13.80;69.90;;;;;;5018931;28;20471;-77
2022/04/23 08:59:59;;;;;;;15.67;9.30;;;13.90;69.40;;;;;;5013198;28;20863;-77
2022/04/23 09:02:26;;;;;;;14.97;8.87;;;13.90;68.50;;;;;;5023969;28;20784;-77
2022/04/23 09:04:56;;;;;;;15.63;8.93;;;13.90;68.50;;;;;;5014252;28;20429;-74
2022/04/23 09:07:25;;;;;;;18.93;9.20;;;13.80;69.20;;;;;;5014772;28;20552;-77
2022/04/23 09:09:55;;;;;;;13.77;8.17;;;14.00;68.90;;;;;;5017270;28;20475;-77
2022/04/23 09:12:25;;;;;;;18.07;9.60;;;13.90;68.60;;;;;;5019831;28;20420;-77
2022/04/23 09:14:52;;;;;;;18.87;9.13;;;13.90;68.50;;;;;;5015298;28;20448;-78
2022/04/23 09:25:44;;;;;;;14.70;9.57;;;13.80;69.10;;;;;;5022507;28;20448;-75
2022/04/23 09:28:33;;;;;;;17.60;8.83;;;13.90;69.10;;;;;;5031919;28;20444;-76
2022/04/23 09:30:59;;;;;;;16.93;9.40;;;14.00;68.60;;;;;;5019609;28;20421;-77
2022/04/23 09:33:41;;;;;;;15.37;9.13;;;14.10;68.50;;;;;;5021383;28;20417;-76
2022/04/23 09:36:07;;;;;;;17.00;9.03;;;14.10;68.50;;;;;;5020426;28;20427;-75
2022/04/23 09:38:33;;;;;;;15.20;8.40;;;14.30;67.50;;;;;;5027149;28;20449;-77
2022/04/23 09:41:15;;;;;;;18.00;9.50;;;14.50;67.20;;;;;;5026342;28;20177;-77
2022/04/23 09:43:43;;;;;;;17.07;9.10;;;14.60;66.60;;;;;;5016434;28;20433;-77
2022/04/23 09:46:09;;;;;;;14.40;7.73;;;14.50;66.70;;;;;;5018328;28;20428;-77
2022/04/23 09:48:38;;;;;;;13.90;7.90;;;14.50;66.90;;;;;;5016875;28;20496;-77
2022/04/23 09:51:04;;;;;;;15.37;9.70;;;14.50;66.70;;;;;;5021314;28;20541;-78
2022/04/23 09:53:30;;;;;;;16.07;9.00;;;14.50;66.60;;;;;;5016354;28;20820;-74
2022/04/23 09:55:59;;;;;;;15.80;8.70;;;14.40;66.90;;;;;;5013262;28;20508;-76
2022/04/23 09:58:29;;;;;;;13.80;8.07;;;14.20;67.30;;;;;;5011594;28;20464;-77
2022/04/23 10:00:56;;;;;;;13.63;8.30;;;14.20;67.70;;;;;;5005791;28;20457;-76
2022/04/23 10:03:32;;;;;;;15.00;7.97;;;14.40;67.50;;;;;;5012617;28;20452;-78
2022/04/23 10:06:00;;;;;;;12.63;7.57;;;14.30;67.60;;;;;;5016506;28;20953;-74
2022/04/23 10:08:31;;;;;;;12.67;7.03;;;14.20;67.50;;;;;;5021672;28;20519;-77
2022/04/23 10:11:04;;;;;;;13.10;7.43;;;14.10;68.20;;;;;;5009996;28;20425;-78
2022/04/23 10:13:33;;;;;;;10.50;6.93;;;14.00;68.30;;;;;;5014219;28;20431;-75
2022/04/23 10:16:02;;;;;;;11.40;6.40;;;14.00;68.30;;;;;;5017888;28;20421;-76
2022/04/23 10:18:28;;;;;;;11.90;6.33;;;14.00;68.80;;;;;;5016178;28;20454;-78
2022/04/23 10:20:58;;;;;;;12.73;6.83;;;13.90;68.90;;;;;;5027712;28;20418;-77
2022/04/23 10:23:48;;;;;;;10.57;6.50;;;13.80;69.40;;;;;;5034373;28;20423;-74
2022/04/23 10:26:33;;;;;;;10.50;6.10;;;13.90;69.10;;;;;;5034696;28;20511;-76
2022/04/23 10:28:59;;;;;;;11.30;6.60;;;14.00;68.90;;;;;;5027639;28;20806;-76
2022/04/23 10:31:25;;;;;;;10.43;6.80;;;14.00;68.60;;;;;;5037527;28;20423;-74
2022/04/23 10:33:52;;;;;;;12.20;6.30;;;14.00;68.90;;;;;;5036176;28;20452;-75
2022/04/23 10:36:19;;;;;;;11.50;7.20;;;14.00;68.60;;;;;;5033729;28;20212;-77
2022/04/23 10:38:51;;;;;;;13.30;7.10;;;14.00;68.60;;;;;;5021000;28;20455;-76
2022/04/23 10:41:22;;;;;;;11.13;6.43;;;14.10;68.60;;;;;;5031168;28;20443;-77
2022/04/23 10:44:04;;;;;;;11.63;6.43;;;14.20;67.90;;;;;;5015816;28;20645;-77
2022/04/23 10:46:40;;;;;;;11.50;6.20;;;14.50;67.30;;;;;;5009952;28;20426;-75
2022/04/23 10:49:14;;;;;;;11.93;6.23;;;14.60;66.30;;;;;;5019386;28;20556;-75
2022/04/23 10:51:50;;;;;;;10.67;6.07;;;14.60;66.10;;;;;;5017408;28;20486;-76
2022/04/23 10:54:19;;;;;;;11.83;6.70;;;14.60;66.40;;;;;;5021281;28;20420;-77
2022/04/23 10:56:50;;;;;;;9.57;5.80;;;14.60;66.60;;;;;;5011095;28;20443;-76
2022/04/23 10:59:38;;;;;;;10.90;7.07;;;14.60;66.60;;;;;;5012829;28;20503;-77
2022/04/23 11:02:06;;;;;;;11.57;6.13;;;14.70;66.40;;;;;;5019987;28;20871;-76
2022/04/23 11:04:34;;;;;;;15.80;6.47;;;14.80;66.10;;;;;;5022890;28;20469;-75
2022/04/23 11:12:22;;;;;;;10.63;6.43;;;14.80;65.70;;;;;;5015571;28;20426;-74
2022/04/23 11:14:51;;;;;;;12.67;6.90;;;14.70;65.70;;;;;;5013251;28;20409;-76
2022/04/23 11:17:25;;;;;;;11.57;7.03;;;14.50;66.70;;;;;;5011871;28;20438;-77
2022/04/23 11:19:52;;;;;;;10.60;6.33;;;14.60;67.00;;;;;;5017272;28;20437;-75
2022/04/23 11:22:20;;;;;;;14.67;7.73;;;14.50;67.20;;;;;;5018977;28;20424;-74
2022/04/23 11:24:51;;;;;;;11.30;6.93;;;14.50;67.30;;;;;;5022271;28;20946;-76
2022/04/23 11:27:24;;;;;;;10.47;7.00;;;14.60;67.00;;;;;;5016664;28;20469;-75
2022/04/23 11:29:54;;;;;;;14.60;7.63;;;14.60;66.70;;;;;;5015845;28;20431;-77
2022/04/23 11:32:27;;;;;;;10.27;6.80;;;14.80;66.30;;;;;;5013790;28;20424;-76
2022/04/23 11:34:56;;;;;;;12.70;7.57;;;14.90;66.30;;;;;;5011797;28;20457;-73
2022/04/23 11:37:36;;;;;;;10.73;6.80;;;15.00;65.70;;;;;;5015483;28;20445;-76
2022/04/23 11:40:13;;;;;;;11.57;7.80;;;14.80;65.70;;;;;;5014429;28;20452;-76
2022/04/23 11:42:45;;;;;;;14.20;7.97;;;14.70;66.30;;;;;;5016736;28;20931;-76
2022/04/23 11:45:16;;;;;;;12.57;8.23;;;14.60;67.00;;;;;;5016000;28;20549;-78
2022/04/23 11:47:42;;;;;;;13.07;7.63;;;14.60;66.90;;;;;;5014402;28;20611;-77
2022/04/23 11:50:24;;;;;;;11.57;7.03;;;14.80;66.40;;;;;;5016940;28;20995;-76
2022/04/23 11:53:01;;;;;;;15.70;8.27;;;14.90;65.80;;;;;;5016996;28;20472;-76
2022/04/23 11:55:28;;;;;;;11.47;7.20;;;15.10;65.40;;;;;;5014257;28;20547;-78
2022/04/23 11:57:59;;;;;;;14.80;7.77;;;14.80;66.10;;;;;;5020084;28;20445;-75
2022/04/23 12:00:26;;;;;;;14.00;8.30;;;14.80;66.40;;;;;;5016603;28;20420;-76
2022/04/23 12:02:53;;;;;;;12.93;8.13;;;14.70;66.30;;;;;;5026292;28;20425;-78
2022/04/23 12:05:32;;;;;;;16.03;8.27;;;14.60;67.30;;;;;;5015912;28;20949;-80
2022/04/23 12:07:59;;;;;;;15.27;7.90;;;14.70;66.60;;;;;;5012201;28;20576;-77
2022/04/23 12:10:30;;;;;;;17.20;9.13;;;14.80;66.30;;;;;;5020298;28;20950;-77
2022/04/23 12:13:00;;;;;;;11.80;7.67;;;14.80;66.30;;;;;;5015144;28;20503;-77
2022/04/23 12:15:26;;;;;;;15.10;8.37;;;14.80;66.40;;;;;;5017823;28;20474;-77
2022/04/23 12:17:55;;;;;;;11.83;7.80;;;15.00;66.30;;;;;;5008673;28;20445;-75
2022/04/23 12:20:26;;;;;;;18.50;9.80;;;15.10;66.10;;;;;;5014279;28;20425;-76
2022/04/23 12:23:03;;;;;;;14.10;7.73;;;15.10;65.70;;;;;;5012612;28;20457;-78
2022/04/23 12:25:33;;;;;;;17.00;9.20;;;15.30;65.60;;;;;;5016498;28;20416;-76
2022/04/23 12:28:03;;;;;;;14.60;7.93;;;15.10;65.70;;;;;;5013424;28;20479;-77
2022/04/23 12:41:56;;;;;;;12.90;8.13;;;15.00;66.10;;;;;;5020970;28;20978;-77
2022/04/23 12:44:23;;;;;;;14.97;9.33;;;15.10;65.80;;;;;;5020168;28;20487;-76
2022/04/23 12:47:00;;;;;;;14.10;8.47;;;15.10;66.00;;;;;;5017160;28;20979;-76
2022/04/23 12:49:58;;;;;;;15.10;8.20;;;15.20;66.00;;;;;;5014960;28;21011;-73
2022/04/23 12:52:25;;;;;;;14.07;8.60;;;15.40;64.80;;;;;;5034058;28;20419;-75
2022/04/23 12:55:14;;;;;;;14.23;7.67;;;15.50;64.80;;;;;;5042172;28;20501;-76
2022/04/23 12:57:45;;;;;;;13.40;8.33;;;15.60;64.70;;;;;;5017839;28;20488;-78
2022/04/23 13:00:16;;;;;;;13.03;7.97;;;15.80;64.10;;;;;;5015758;28;20431;-76
2022/04/23 13:02:43;;;;;;;22.43;8.90;;;15.70;63.90;;;;;;5014144;28;20515;-76
2022/04/23 13:05:10;;;;;;;18.53;9.53;;;15.40;64.50;;;;;;5013260;28;20428;-78
2022/04/23 13:10:22;;;;;;;14.10;9.00;;;15.40;65.30;;;;;;5017516;28;20459;-76
2022/04/23 13:12:48;;;;;;;12.83;8.00;;;15.50;64.70;;;;;;5014340;28;20920;-76
2022/04/23 13:15:15;;;;;;;14.20;9.30;;;15.50;64.80;;;;;;5017173;28;20422;-76
2022/04/23 13:17:42;;;;;;;14.90;8.80;;;15.50;64.80;;;;;;5016157;28;20931;-77